Vintage I — 9HB3056 — position and weather

sailwx.info

Track history (hours):
 
Tides and Currents Weather Stations Pressure Air Temp Water Temp Dewpoint Dewpoint Depression Visibility Wind Speed Wind Dir Waves Ship Positions

Vintage I

Last reported at 2018-Jun-22 15:35 UTC. Time now 2018-Jun-23 02:43 UTC.
Position N 43°32' E 007°07'.

Length 24 m.

Type: Sailing vessel. MMSI: 229260000.

Date/timePositionNaut miles runAvg speedWind from/ knotsBaromVisibWave heightAir tempDewpointWater temp
2018-Jun-22 15:35N 43°32' E 007°07'2 6.1
2018-Jun-22 15:19N 43°31' E 007°05'2 6.3
2018-Jun-22 14:58N 43°30' E 007°03'1 1.9
2018-Jun-22 14:23N 43°31' E 007°02'0 0.0
2018-Jun-22 13:56N 43°31' E 007°02'0 0.0
2018-Jun-22 13:23N 43°31' E 007°02'0 0.0
2018-Jun-22 12:50N 43°31' E 007°02'0 0.0
2018-Jun-22 12:26N 43°31' E 007°02'1 2.0
2018-Jun-22 11:58N 43°30' E 007°02'3 7.5
2018-Jun-22 11:30N 43°31' E 007°06'25 1.1
2018-Jun-21 13:01N 43°46' E 007°35'0 7.4
2018-Jun-21 12:59N 43°46' E 007°35'5 7.6
2018-Jun-21 12:19N 43°46' E 007°42'2 7.4
2018-Jun-21 12:00N 43°47' E 007°45'13 4.1
2018-Jun-21 08:52N 43°52' E 008°01'  
2018-Jun-18 08:09N 43°31' E 007°08'2 7.3
2018-Jun-18 07:56N 43°30' E 007°07'3 7.4
2018-Jun-18 07:30N 43°27' E 007°05'4 7.3
2018-Jun-18 07:00N 43°24' E 007°02'  
Track history (hours):
 
Tides and Currents Weather Stations Pressure Air Temp Water Temp Dewpoint Dewpoint Depression Visibility Wind Speed Wind Dir Waves Ship Positions

Vintage I

Last reported at 2018-Jun-22 15:35 UTC. Time now 2018-Jun-23 02:43 UTC.
Position N 43°32' E 007°07'.

Length 24 m.

Type: Sailing vessel. MMSI: 229260000.

Date/timePositionNaut miles runAvg speedWind from/ knotsBaromVisibWave heightAir tempDewpointWater temp
2018-Jun-22 15:35N 43°32' E 007°07'2 6.1
2018-Jun-22 15:19N 43°31' E 007°05'2 6.3
2018-Jun-22 14:58N 43°30' E 007°03'1 1.9
2018-Jun-22 14:23N 43°31' E 007°02'0 0.0
2018-Jun-22 13:56N 43°31' E 007°02'0 0.0
2018-Jun-22 13:23N 43°31' E 007°02'0 0.0
2018-Jun-22 12:50N 43°31' E 007°02'0 0.0
2018-Jun-22 12:26N 43°31' E 007°02'1 2.0
2018-Jun-22 11:58N 43°30' E 007°02'3 7.5
2018-Jun-22 11:30N 43°31' E 007°06'25 1.1
2018-Jun-21 13:01N 43°46' E 007°35'0 7.4
2018-Jun-21 12:59N 43°46' E 007°35'5 7.6
2018-Jun-21 12:19N 43°46' E 007°42'2 7.4
2018-Jun-21 12:00N 43°47' E 007°45'13 4.1
2018-Jun-21 08:52N 43°52' E 008°01'  
2018-Jun-18 08:09N 43°31' E 007°08'2 7.3
2018-Jun-18 07:56N 43°30' E 007°07'3 7.4
2018-Jun-18 07:30N 43°27' E 007°05'4 7.3
2018-Jun-18 07:00N 43°24' E 007°02'  

Dump ship's entire track history